sensor_id;sensor_type;location;lat;lon;timestamp;P1;durP1;ratioP1;P2;durP2;ratioP2
9789;SDS011;4934;50.852;8.098;2022-09-11T00:00:49;34.25;;;16.83;;
9789;SDS011;4934;50.852;8.098;2022-09-11T00:03:17;30.88;;;18.15;;
9789;SDS011;4934;50.852;8.098;2022-09-11T00:05:44;29.98;;;16.75;;
9789;SDS011;4934;50.852;8.098;2022-09-11T00:08:11;31.02;;;18.05;;
9789;SDS011;4934;50.852;8.098;2022-09-11T00:10:38;29.83;;;16.30;;
9789;SDS011;4934;50.852;8.098;2022-09-11T00:13:06;34.13;;;18.02;;
9789;SDS011;4934;50.852;8.098;2022-09-11T00:15:36;27.55;;;15.75;;
9789;SDS011;4934;50.852;8.098;2022-09-11T00:18:02;31.08;;;15.88;;
9789;SDS011;4934;50.852;8.098;2022-09-11T00:20:28;33.20;;;17.70;;
9789;SDS011;4934;50.852;8.098;2022-09-11T00:22:55;31.42;;;16.95;;
9789;SDS011;4934;50.852;8.098;2022-09-11T00:25:21;30.60;;;16.58;;
9789;SDS011;4934;50.852;8.098;2022-09-11T00:27:46;33.17;;;17.58;;
9789;SDS011;4934;50.852;8.098;2022-09-11T00:30:12;31.02;;;17.52;;
9789;SDS011;4934;50.852;8.098;2022-09-11T00:32:38;28.35;;;15.68;;
9789;SDS011;4934;50.852;8.098;2022-09-11T00:35:04;31.00;;;17.05;;
9789;SDS011;4934;50.852;8.098;2022-09-11T00:37:30;31.08;;;17.30;;
9789;SDS011;4934;50.852;8.098;2022-09-11T00:39:55;31.92;;;16.65;;
9789;SDS011;4934;50.852;8.098;2022-09-11T00:42:21;35.75;;;17.10;;
9789;SDS011;4934;50.852;8.098;2022-09-11T00:47:13;30.02;;;16.92;;
9789;SDS011;4934;50.852;8.098;2022-09-11T00:49:43;35.20;;;17.65;;
9789;SDS011;4934;50.852;8.098;2022-09-11T00:52:28;29.33;;;16.58;;
9789;SDS011;4934;50.852;8.098;2022-09-11T00:55:08;32.75;;;17.83;;
9789;SDS011;4934;50.852;8.098;2022-09-11T00:57:39;31.83;;;18.05;;
9789;SDS011;4934;50.852;8.098;2022-09-11T01:00:08;31.42;;;16.20;;
9789;SDS011;4934;50.852;8.098;2022-09-11T01:02:36;32.67;;;17.35;;
9789;SDS011;4934;50.852;8.098;2022-09-11T01:05:04;31.10;;;17.40;;
9789;SDS011;4934;50.852;8.098;2022-09-11T01:07:30;34.65;;;18.60;;
9789;SDS011;4934;50.852;8.098;2022-09-11T01:09:59;32.13;;;16.98;;
9789;SDS011;4934;50.852;8.098;2022-09-11T01:15:35;31.40;;;16.20;;
9789;SDS011;4934;50.852;8.098;2022-09-11T01:18:16;35.83;;;17.27;;
9789;SDS011;4934;50.852;8.098;2022-09-11T01:28:51;33.13;;;17.77;;
9789;SDS011;4934;50.852;8.098;2022-09-11T01:31:48;32.90;;;17.42;;
9789;SDS011;4934;50.852;8.098;2022-09-11T01:34:21;36.75;;;17.45;;
9789;SDS011;4934;50.852;8.098;2022-09-11T01:37:01;38.15;;;17.75;;
9789;SDS011;4934;50.852;8.098;2022-09-11T01:39:32;32.65;;;17.02;;
9789;SDS011;4934;50.852;8.098;2022-09-11T01:42:03;35.15;;;17.00;;
9789;SDS011;4934;50.852;8.098;2022-09-11T01:44:35;36.00;;;18.77;;
9789;SDS011;4934;50.852;8.098;2022-09-11T01:47:05;36.70;;;17.90;;
9789;SDS011;4934;50.852;8.098;2022-09-11T01:49:35;32.35;;;16.67;;
9789;SDS011;4934;50.852;8.098;2022-09-11T01:52:11;34.00;;;18.55;;
9789;SDS011;4934;50.852;8.098;2022-09-11T01:54:43;35.35;;;16.98;;
9789;SDS011;4934;50.852;8.098;2022-09-11T02:00:06;28.08;;;15.43;;
9789;SDS011;4934;50.852;8.098;2022-09-11T02:02:36;30.08;;;15.15;;
9789;SDS011;4934;50.852;8.098;2022-09-11T02:05:06;32.35;;;16.98;;
9789;SDS011;4934;50.852;8.098;2022-09-11T02:07:40;30.50;;;16.13;;
9789;SDS011;4934;50.852;8.098;2022-09-11T02:10:22;33.25;;;17.63;;
9789;SDS011;4934;50.852;8.098;2022-09-11T02:12:59;38.35;;;18.58;;
9789;SDS011;4934;50.852;8.098;2022-09-11T02:15:40;33.72;;;16.17;;
9789;SDS011;4934;50.852;8.098;2022-09-11T02:18:19;36.58;;;18.30;;
9789;SDS011;4934;50.852;8.098;2022-09-11T02:21:15;35.75;;;18.10;;
9789;SDS011;4934;50.852;8.098;2022-09-11T02:23:41;32.00;;;17.02;;
9789;SDS011;4934;50.852;8.098;2022-09-11T02:26:06;34.95;;;18.00;;
9789;SDS011;4934;50.852;8.098;2022-09-11T02:28:36;41.15;;;18.63;;
9789;SDS011;4934;50.852;8.098;2022-09-11T02:31:01;30.02;;;16.70;;
9789;SDS011;4934;50.852;8.098;2022-09-11T02:33:28;30.25;;;15.27;;
9789;SDS011;4934;50.852;8.098;2022-09-11T02:38:58;45.85;;;21.65;;
9789;SDS011;4934;50.852;8.098;2022-09-11T02:41:26;47.95;;;21.92;;
9789;SDS011;4934;50.852;8.098;2022-09-11T02:44:21;52.15;;;22.20;;
9789;SDS011;4934;50.852;8.098;2022-09-11T02:47:24;45.80;;;22.42;;
9789;SDS011;4934;50.852;8.098;2022-09-11T02:50:01;48.13;;;22.55;;
9789;SDS011;4934;50.852;8.098;2022-09-11T02:52:42;49.95;;;23.85;;
9789;SDS011;4934;50.852;8.098;2022-09-11T03:01:00;50.15;;;23.08;;
9789;SDS011;4934;50.852;8.098;2022-09-11T03:03:26;50.58;;;23.73;;
9789;SDS011;4934;50.852;8.098;2022-09-11T03:05:52;52.25;;;25.00;;
9789;SDS011;4934;50.852;8.098;2022-09-11T03:08:18;54.05;;;26.52;;
9789;SDS011;4934;50.852;8.098;2022-09-11T03:10:44;51.80;;;24.65;;
9789;SDS011;4934;50.852;8.098;2022-09-11T03:13:14;48.20;;;24.58;;
9789;SDS011;4934;50.852;8.098;2022-09-11T03:15:40;55.10;;;25.98;;
9789;SDS011;4934;50.852;8.098;2022-09-11T03:18:07;56.85;;;26.38;;
9789;SDS011;4934;50.852;8.098;2022-09-11T03:20:34;59.47;;;27.40;;
9789;SDS011;4934;50.852;8.098;2022-09-11T03:23:00;59.80;;;26.45;;
9789;SDS011;4934;50.852;8.098;2022-09-11T03:25:26;50.95;;;24.63;;
9789;SDS011;4934;50.852;8.098;2022-09-11T03:27:52;50.10;;;24.00;;
9789;SDS011;4934;50.852;8.098;2022-09-11T03:30:19;57.67;;;26.52;;
9789;SDS011;4934;50.852;8.098;2022-09-11T03:32:45;59.28;;;27.27;;
9789;SDS011;4934;50.852;8.098;2022-09-11T03:35:12;61.35;;;27.35;;
9789;SDS011;4934;50.852;8.098;2022-09-11T03:37:37;53.17;;;24.55;;
9789;SDS011;4934;50.852;8.098;2022-09-11T03:40:03;54.10;;;22.92;;
9789;SDS011;4934;50.852;8.098;2022-09-11T03:42:29;49.17;;;24.13;;
9789;SDS011;4934;50.852;8.098;2022-09-11T03:44:55;52.65;;;24.35;;
9789;SDS011;4934;50.852;8.098;2022-09-11T03:47:20;50.92;;;24.67;;
9789;SDS011;4934;50.852;8.098;2022-09-11T03:49:46;46.70;;;23.52;;
9789;SDS011;4934;50.852;8.098;2022-09-11T03:52:12;45.08;;;21.35;;
9789;SDS011;4934;50.852;8.098;2022-09-11T03:54:38;54.30;;;26.98;;
9789;SDS011;4934;50.852;8.098;2022-09-11T03:57:04;50.60;;;25.55;;
9789;SDS011;4934;50.852;8.098;2022-09-11T03:59:31;50.75;;;23.00;;
9789;SDS011;4934;50.852;8.098;2022-09-11T04:01:56;46.30;;;22.65;;
9789;SDS011;4934;50.852;8.098;2022-09-11T04:04:22;45.92;;;21.83;;
9789;SDS011;4934;50.852;8.098;2022-09-11T04:06:47;44.38;;;20.27;;
9789;SDS011;4934;50.852;8.098;2022-09-11T04:09:13;47.08;;;21.92;;
9789;SDS011;4934;50.852;8.098;2022-09-11T04:11:39;41.13;;;20.70;;
9789;SDS011;4934;50.852;8.098;2022-09-11T04:14:05;39.75;;;19.92;;
9789;SDS011;4934;50.852;8.098;2022-09-11T04:16:31;42.90;;;20.45;;
9789;SDS011;4934;50.852;8.098;2022-09-11T04:18:58;49.70;;;23.70;;
9789;SDS011;4934;50.852;8.098;2022-09-11T04:21:24;53.92;;;24.23;;
9789;SDS011;4934;50.852;8.098;2022-09-11T04:23:52;50.95;;;23.70;;
9789;SDS011;4934;50.852;8.098;2022-09-11T04:26:22;58.13;;;26.55;;
9789;SDS011;4934;50.852;8.098;2022-09-11T04:28:50;54.50;;;25.05;;
9789;SDS011;4934;50.852;8.098;2022-09-11T04:31:16;50.38;;;22.63;;
9789;SDS011;4934;50.852;8.098;2022-09-11T04:33:43;50.25;;;24.40;;
9789;SDS011;4934;50.852;8.098;2022-09-11T04:36:13;56.15;;;26.02;;
9789;SDS011;4934;50.852;8.098;2022-09-11T04:38:44;64.00;;;27.25;;
9789;SDS011;4934;50.852;8.098;2022-09-11T04:41:11;49.17;;;23.17;;
9789;SDS011;4934;50.852;8.098;2022-09-11T04:43:37;51.25;;;23.45;;
9789;SDS011;4934;50.852;8.098;2022-09-11T04:46:05;50.92;;;22.17;;
9789;SDS011;4934;50.852;8.098;2022-09-11T04:48:33;47.60;;;22.97;;
9789;SDS011;4934;50.852;8.098;2022-09-11T04:51:03;45.17;;;21.58;;
9789;SDS011;4934;50.852;8.098;2022-09-11T04:53:31;49.50;;;23.48;;
9789;SDS011;4934;50.852;8.098;2022-09-11T04:56:07;52.85;;;24.17;;
9789;SDS011;4934;50.852;8.098;2022-09-11T04:58:34;53.92;;;24.95;;
9789;SDS011;4934;50.852;8.098;2022-09-11T05:01:04;55.15;;;24.65;;
9789;SDS011;4934;50.852;8.098;2022-09-11T05:03:31;50.20;;;23.30;;
9789;SDS011;4934;50.852;8.098;2022-09-11T05:05:57;56.83;;;25.83;;
9789;SDS011;4934;50.852;8.098;2022-09-11T05:08:23;62.08;;;27.17;;
9789;SDS011;4934;50.852;8.098;2022-09-11T05:10:50;66.68;;;30.27;;
9789;SDS011;4934;50.852;8.098;2022-09-11T05:13:17;74.97;;;30.85;;
9789;SDS011;4934;50.852;8.098;2022-09-11T05:15:42;75.25;;;29.38;;
9789;SDS011;4934;50.852;8.098;2022-09-11T05:18:09;75.10;;;31.38;;
9789;SDS011;4934;50.852;8.098;2022-09-11T05:20:35;74.63;;;30.08;;
9789;SDS011;4934;50.852;8.098;2022-09-11T05:23:01;81.63;;;32.05;;
9789;SDS011;4934;50.852;8.098;2022-09-11T05:25:28;76.07;;;31.13;;
9789;SDS011;4934;50.852;8.098;2022-09-11T05:27:55;81.25;;;33.17;;
9789;SDS011;4934;50.852;8.098;2022-09-11T05:30:21;85.88;;;34.70;;
9789;SDS011;4934;50.852;8.098;2022-09-11T05:32:50;77.65;;;31.27;;
9789;SDS011;4934;50.852;8.098;2022-09-11T05:35:19;75.03;;;32.72;;
9789;SDS011;4934;50.852;8.098;2022-09-11T05:37:48;77.88;;;32.67;;
9789;SDS011;4934;50.852;8.098;2022-09-11T05:40:14;80.45;;;31.58;;
9789;SDS011;4934;50.852;8.098;2022-09-11T05:42:40;77.05;;;31.25;;
9789;SDS011;4934;50.852;8.098;2022-09-11T05:45:05;72.35;;;30.70;;
9789;SDS011;4934;50.852;8.098;2022-09-11T05:47:31;79.38;;;30.25;;
9789;SDS011;4934;50.852;8.098;2022-09-11T05:49:58;83.88;;;33.08;;
9789;SDS011;4934;50.852;8.098;2022-09-11T05:52:23;89.28;;;33.65;;
9789;SDS011;4934;50.852;8.098;2022-09-11T05:54:49;78.15;;;31.98;;
9789;SDS011;4934;50.852;8.098;2022-09-11T05:57:17;82.38;;;34.00;;
9789;SDS011;4934;50.852;8.098;2022-09-11T05:59:43;87.07;;;32.85;;
9789;SDS011;4934;50.852;8.098;2022-09-11T06:02:10;78.68;;;31.90;;
9789;SDS011;4934;50.852;8.098;2022-09-11T06:04:35;82.00;;;31.40;;
9789;SDS011;4934;50.852;8.098;2022-09-11T06:07:01;74.32;;;31.08;;
9789;SDS011;4934;50.852;8.098;2022-09-11T06:09:27;81.85;;;29.77;;
9789;SDS011;4934;50.852;8.098;2022-09-11T06:11:53;63.72;;;26.70;;
9789;SDS011;4934;50.852;8.098;2022-09-11T06:14:19;71.80;;;30.48;;
9789;SDS011;4934;50.852;8.098;2022-09-11T06:16:46;70.18;;;30.90;;
9789;SDS011;4934;50.852;8.098;2022-09-11T06:19:12;81.43;;;32.33;;
9789;SDS011;4934;50.852;8.098;2022-09-11T06:21:38;80.90;;;32.42;;
9789;SDS011;4934;50.852;8.098;2022-09-11T06:24:05;79.43;;;31.50;;
9789;SDS011;4934;50.852;8.098;2022-09-11T06:26:32;75.63;;;30.42;;
9789;SDS011;4934;50.852;8.098;2022-09-11T06:28:59;88.90;;;35.00;;
9789;SDS011;4934;50.852;8.098;2022-09-11T06:31:25;74.57;;;31.65;;
9789;SDS011;4934;50.852;8.098;2022-09-11T06:33:51;79.72;;;31.52;;
9789;SDS011;4934;50.852;8.098;2022-09-11T06:36:18;89.43;;;34.80;;
9789;SDS011;4934;50.852;8.098;2022-09-11T06:38:50;81.20;;;31.95;;
9789;SDS011;4934;50.852;8.098;2022-09-11T06:41:20;75.18;;;30.65;;
9789;SDS011;4934;50.852;8.098;2022-09-11T06:43:46;77.13;;;31.52;;
9789;SDS011;4934;50.852;8.098;2022-09-11T06:46:14;86.82;;;32.72;;
9789;SDS011;4934;50.852;8.098;2022-09-11T06:48:42;82.75;;;31.60;;
9789;SDS011;4934;50.852;8.098;2022-09-11T06:51:10;73.93;;;32.03;;
9789;SDS011;4934;50.852;8.098;2022-09-11T06:53:38;82.18;;;31.52;;
9789;SDS011;4934;50.852;8.098;2022-09-11T06:56:05;75.75;;;30.25;;
9789;SDS011;4934;50.852;8.098;2022-09-11T06:58:33;73.53;;;30.85;;
9789;SDS011;4934;50.852;8.098;2022-09-11T07:01:02;77.15;;;30.55;;
9789;SDS011;4934;50.852;8.098;2022-09-11T07:03:29;74.85;;;32.08;;
9789;SDS011;4934;50.852;8.098;2022-09-11T07:05:55;72.47;;;29.35;;
9789;SDS011;4934;50.852;8.098;2022-09-11T07:08:20;71.35;;;31.08;;
9789;SDS011;4934;50.852;8.098;2022-09-11T07:10:46;68.90;;;30.80;;
9789;SDS011;4934;50.852;8.098;2022-09-11T07:13:12;68.50;;;29.38;;
9789;SDS011;4934;50.852;8.098;2022-09-11T07:15:37;64.65;;;28.45;;
9789;SDS011;4934;50.852;8.098;2022-09-11T07:18:03;62.45;;;28.48;;
9789;SDS011;4934;50.852;8.098;2022-09-11T07:20:29;64.90;;;27.65;;
9789;SDS011;4934;50.852;8.098;2022-09-11T07:22:55;58.72;;;26.95;;
9789;SDS011;4934;50.852;8.098;2022-09-11T07:25:22;61.90;;;28.42;;
9789;SDS011;4934;50.852;8.098;2022-09-11T07:27:49;63.95;;;30.02;;
9789;SDS011;4934;50.852;8.098;2022-09-11T07:30:16;59.25;;;27.88;;
9789;SDS011;4934;50.852;8.098;2022-09-11T07:32:42;62.40;;;27.60;;
9789;SDS011;4934;50.852;8.098;2022-09-11T07:35:08;67.22;;;28.88;;
9789;SDS011;4934;50.852;8.098;2022-09-11T07:37:34;64.57;;;26.55;;
9789;SDS011;4934;50.852;8.098;2022-09-11T07:39:59;61.03;;;28.52;;
9789;SDS011;4934;50.852;8.098;2022-09-11T07:42:25;62.30;;;27.65;;
9789;SDS011;4934;50.852;8.098;2022-09-11T07:44:53;64.43;;;26.30;;
9789;SDS011;4934;50.852;8.098;2022-09-11T07:47:22;62.50;;;27.27;;
9789;SDS011;4934;50.852;8.098;2022-09-11T07:49:48;54.70;;;26.58;;
9789;SDS011;4934;50.852;8.098;2022-09-11T07:52:14;56.13;;;25.80;;
9789;SDS011;4934;50.852;8.098;2022-09-11T07:54:42;59.38;;;25.75;;
9789;SDS011;4934;50.852;8.098;2022-09-11T07:57:08;56.60;;;26.48;;
9789;SDS011;4934;50.852;8.098;2022-09-11T07:59:36;63.05;;;28.08;;
9789;SDS011;4934;50.852;8.098;2022-09-11T08:02:05;56.55;;;25.83;;
9789;SDS011;4934;50.852;8.098;2022-09-11T08:04:41;51.00;;;24.02;;
9789;SDS011;4934;50.852;8.098;2022-09-11T08:07:07;56.47;;;26.70;;
9789;SDS011;4934;50.852;8.098;2022-09-11T08:09:32;61.65;;;28.52;;
9789;SDS011;4934;50.852;8.098;2022-09-11T08:11:58;58.28;;;25.90;;
9789;SDS011;4934;50.852;8.098;2022-09-11T08:14:28;54.58;;;25.77;;
9789;SDS011;4934;50.852;8.098;2022-09-11T08:16:55;56.03;;;24.92;;
9789;SDS011;4934;50.852;8.098;2022-09-11T08:19:21;57.33;;;24.33;;
9789;SDS011;4934;50.852;8.098;2022-09-11T08:21:48;56.80;;;24.35;;
9789;SDS011;4934;50.852;8.098;2022-09-11T08:24:15;55.80;;;23.50;;
9789;SDS011;4934;50.852;8.098;2022-09-11T08:26:41;49.15;;;23.13;;
9789;SDS011;4934;50.852;8.098;2022-09-11T08:29:07;54.13;;;22.80;;
9789;SDS011;4934;50.852;8.098;2022-09-11T08:31:33;54.65;;;24.50;;
9789;SDS011;4934;50.852;8.098;2022-09-11T08:33:59;51.17;;;24.83;;
9789;SDS011;4934;50.852;8.098;2022-09-11T08:36:28;46.67;;;23.00;;
9789;SDS011;4934;50.852;8.098;2022-09-11T08:38:54;61.20;;;25.30;;
9789;SDS011;4934;50.852;8.098;2022-09-11T08:44:26;47.83;;;23.88;;
9789;SDS011;4934;50.852;8.098;2022-09-11T08:47:09;67.50;;;27.13;;
9789;SDS011;4934;50.852;8.098;2022-09-11T08:49:45;55.90;;;25.42;;
9789;SDS011;4934;50.852;8.098;2022-09-11T08:52:19;41.05;;;20.02;;
9789;SDS011;4934;50.852;8.098;2022-09-11T08:54:45;41.03;;;20.70;;
9789;SDS011;4934;50.852;8.098;2022-09-11T09:01:13;37.80;;;19.05;;
9789;SDS011;4934;50.852;8.098;2022-09-11T09:06:45;40.05;;;20.40;;
9789;SDS011;4934;50.852;8.098;2022-09-11T09:11:53;45.42;;;20.60;;
9789;SDS011;4934;50.852;8.098;2022-09-11T09:20:21;40.42;;;19.25;;
9789;SDS011;4934;50.852;8.098;2022-09-11T09:22:56;43.83;;;19.88;;
9789;SDS011;4934;50.852;8.098;2022-09-11T09:25:25;45.72;;;20.98;;
9789;SDS011;4934;50.852;8.098;2022-09-11T09:27:55;38.60;;;18.50;;
9789;SDS011;4934;50.852;8.098;2022-09-11T09:30:43;40.40;;;19.85;;
9789;SDS011;4934;50.852;8.098;2022-09-11T09:33:22;38.10;;;19.70;;
9789;SDS011;4934;50.852;8.098;2022-09-11T09:36:14;38.85;;;18.13;;
9789;SDS011;4934;50.852;8.098;2022-09-11T09:38:52;32.17;;;16.63;;
9789;SDS011;4934;50.852;8.098;2022-09-11T09:41:41;33.80;;;17.25;;
9789;SDS011;4934;50.852;8.098;2022-09-11T09:47:09;39.08;;;17.48;;
9789;SDS011;4934;50.852;8.098;2022-09-11T09:49:37;34.13;;;16.48;;
9789;SDS011;4934;50.852;8.098;2022-09-11T09:52:17;29.27;;;15.65;;
9789;SDS011;4934;50.852;8.098;2022-09-11T09:54:54;31.15;;;16.20;;
9789;SDS011;4934;50.852;8.098;2022-09-11T09:57:32;31.77;;;14.98;;
9789;SDS011;4934;50.852;8.098;2022-09-11T10:02:38;23.73;;;13.07;;
9789;SDS011;4934;50.852;8.098;2022-09-11T10:05:29;27.75;;;13.18;;
9789;SDS011;4934;50.852;8.098;2022-09-11T10:08:01;27.50;;;13.18;;
9789;SDS011;4934;50.852;8.098;2022-09-11T10:10:33;25.48;;;13.32;;
9789;SDS011;4934;50.852;8.098;2022-09-11T10:13:03;26.38;;;13.27;;
9789;SDS011;4934;50.852;8.098;2022-09-11T10:15:42;28.27;;;12.80;;
9789;SDS011;4934;50.852;8.098;2022-09-11T10:18:30;23.85;;;12.55;;
9789;SDS011;4934;50.852;8.098;2022-09-11T10:24:02;23.20;;;11.50;;
9789;SDS011;4934;50.852;8.098;2022-09-11T10:26:38;23.30;;;12.65;;
9789;SDS011;4934;50.852;8.098;2022-09-11T10:32:00;21.65;;;11.75;;
9789;SDS011;4934;50.852;8.098;2022-09-11T10:34:39;26.40;;;12.40;;
9789;SDS011;4934;50.852;8.098;2022-09-11T10:37:25;29.13;;;13.75;;
9789;SDS011;4934;50.852;8.098;2022-09-11T10:40:07;26.33;;;12.80;;
9789;SDS011;4934;50.852;8.098;2022-09-11T10:42:49;23.33;;;12.68;;
9789;SDS011;4934;50.852;8.098;2022-09-11T10:45:16;24.25;;;13.85;;
9789;SDS011;4934;50.852;8.098;2022-09-11T10:47:48;22.35;;;11.93;;
9789;SDS011;4934;50.852;8.098;2022-09-11T10:50:22;20.42;;;10.20;;
9789;SDS011;4934;50.852;8.098;2022-09-11T10:53:20;24.20;;;10.65;;
9789;SDS011;4934;50.852;8.098;2022-09-11T10:55:59;17.80;;;10.35;;
9789;SDS011;4934;50.852;8.098;2022-09-11T10:58:37;21.17;;;10.68;;
9789;SDS011;4934;50.852;8.098;2022-09-11T11:01:16;23.67;;;11.98;;
9789;SDS011;4934;50.852;8.098;2022-09-11T11:03:54;24.85;;;10.80;;
9789;SDS011;4934;50.852;8.098;2022-09-11T11:06:37;25.52;;;11.63;;
9789;SDS011;4934;50.852;8.098;2022-09-11T11:11:52;20.70;;;10.07;;
9789;SDS011;4934;50.852;8.098;2022-09-11T11:22:32;30.42;;;14.55;;
9789;SDS011;4934;50.852;8.098;2022-09-11T11:33:44;37.17;;;16.55;;
9789;SDS011;4934;50.852;8.098;2022-09-11T11:41:59;33.05;;;15.25;;
9789;SDS011;4934;50.852;8.098;2022-09-11T11:44:33;28.38;;;13.52;;
9789;SDS011;4934;50.852;8.098;2022-09-11T11:47:10;29.60;;;14.63;;
9789;SDS011;4934;50.852;8.098;2022-09-11T12:02:32;21.90;;;12.13;;
9789;SDS011;4934;50.852;8.098;2022-09-11T12:05:28;32.58;;;13.73;;
9789;SDS011;4934;50.852;8.098;2022-09-11T12:07:56;27.25;;;13.75;;
9789;SDS011;4934;50.852;8.098;2022-09-11T12:13:07;25.52;;;12.60;;
9789;SDS011;4934;50.852;8.098;2022-09-11T12:19:18;28.27;;;13.00;;
9789;SDS011;4934;50.852;8.098;2022-09-11T12:24:48;27.90;;;12.73;;
9789;SDS011;4934;50.852;8.098;2022-09-11T12:32:44;22.02;;;10.50;;
9789;SDS011;4934;50.852;8.098;2022-09-11T12:38:35;17.98;;;9.77;;
9789;SDS011;4934;50.852;8.098;2022-09-11T12:41:24;20.88;;;9.55;;
9789;SDS011;4934;50.852;8.098;2022-09-11T12:43:56;15.75;;;8.30;;
9789;SDS011;4934;50.852;8.098;2022-09-11T12:51:40;18.50;;;9.60;;
9789;SDS011;4934;50.852;8.098;2022-09-11T12:54:23;13.32;;;7.85;;
9789;SDS011;4934;50.852;8.098;2022-09-11T12:57:31;17.77;;;8.32;;
9789;SDS011;4934;50.852;8.098;2022-09-11T13:00:19;16.70;;;9.02;;
9789;SDS011;4934;50.852;8.098;2022-09-11T13:03:30;16.88;;;9.73;;
9789;SDS011;4934;50.852;8.098;2022-09-11T13:06:03;17.35;;;8.80;;
9789;SDS011;4934;50.852;8.098;2022-09-11T13:08:50;18.50;;;9.45;;
9789;SDS011;4934;50.852;8.098;2022-09-11T13:11:48;19.63;;;9.75;;
9789;SDS011;4934;50.852;8.098;2022-09-11T13:20:20;18.48;;;9.07;;
9789;SDS011;4934;50.852;8.098;2022-09-11T13:23:37;16.00;;;8.35;;
9789;SDS011;4934;50.852;8.098;2022-09-11T13:27:12;20.38;;;11.50;;
9789;SDS011;4934;50.852;8.098;2022-09-11T13:29:58;24.33;;;10.43;;
9789;SDS011;4934;50.852;8.098;2022-09-11T13:32:49;25.90;;;10.45;;
9789;SDS011;4934;50.852;8.098;2022-09-11T13:35:43;17.00;;;8.20;;
9789;SDS011;4934;50.852;8.098;2022-09-11T13:38:28;16.77;;;8.00;;
9789;SDS011;4934;50.852;8.098;2022-09-11T13:41:01;15.75;;;8.68;;
9789;SDS011;4934;50.852;8.098;2022-09-11T13:43:42;16.08;;;8.65;;
9789;SDS011;4934;50.852;8.098;2022-09-11T13:46:33;17.52;;;8.15;;
9789;SDS011;4934;50.852;8.098;2022-09-11T13:52:04;13.13;;;7.80;;
9789;SDS011;4934;50.852;8.098;2022-09-11T13:54:50;17.27;;;7.25;;
9789;SDS011;4934;50.852;8.098;2022-09-11T13:57:18;14.13;;;7.80;;
9789;SDS011;4934;50.852;8.098;2022-09-11T13:59:51;16.17;;;8.15;;
9789;SDS011;4934;50.852;8.098;2022-09-11T14:02:24;16.10;;;7.22;;
9789;SDS011;4934;50.852;8.098;2022-09-11T14:18:42;10.68;;;7.20;;
9789;SDS011;4934;50.852;8.098;2022-09-11T14:21:17;12.27;;;7.63;;
9789;SDS011;4934;50.852;8.098;2022-09-11T14:23:54;15.63;;;7.90;;
9789;SDS011;4934;50.852;8.098;2022-09-11T14:26:21;12.70;;;7.53;;
9789;SDS011;4934;50.852;8.098;2022-09-11T14:29:02;14.10;;;7.93;;
9789;SDS011;4934;50.852;8.098;2022-09-11T14:31:47;16.13;;;9.15;;
9789;SDS011;4934;50.852;8.098;2022-09-11T14:36:55;14.98;;;8.45;;
9789;SDS011;4934;50.852;8.098;2022-09-11T14:42:07;21.45;;;8.13;;
9789;SDS011;4934;50.852;8.098;2022-09-11T14:44:36;17.08;;;8.55;;
9789;SDS011;4934;50.852;8.098;2022-09-11T14:47:04;15.88;;;7.97;;
9789;SDS011;4934;50.852;8.098;2022-09-11T14:49:30;13.70;;;7.18;;
9789;SDS011;4934;50.852;8.098;2022-09-11T14:51:57;17.38;;;8.55;;
9789;SDS011;4934;50.852;8.098;2022-09-11T14:54:25;17.50;;;8.73;;
9789;SDS011;4934;50.852;8.098;2022-09-11T14:56:55;16.70;;;8.45;;
9789;SDS011;4934;50.852;8.098;2022-09-11T14:59:22;17.75;;;8.07;;
9789;SDS011;4934;50.852;8.098;2022-09-11T15:01:48;15.45;;;8.80;;
9789;SDS011;4934;50.852;8.098;2022-09-11T15:04:18;16.02;;;8.88;;
9789;SDS011;4934;50.852;8.098;2022-09-11T15:06:49;16.63;;;8.27;;
9789;SDS011;4934;50.852;8.098;2022-09-11T15:09:16;14.18;;;7.80;;
9789;SDS011;4934;50.852;8.098;2022-09-11T15:11:41;14.95;;;8.32;;
9789;SDS011;4934;50.852;8.098;2022-09-11T15:14:09;13.65;;;7.72;;
9789;SDS011;4934;50.852;8.098;2022-09-11T15:16:35;13.15;;;7.75;;
9789;SDS011;4934;50.852;8.098;2022-09-11T15:19:01;13.60;;;6.82;;
9789;SDS011;4934;50.852;8.098;2022-09-11T15:21:27;14.82;;;7.38;;
9789;SDS011;4934;50.852;8.098;2022-09-11T15:23:53;11.88;;;7.18;;
9789;SDS011;4934;50.852;8.098;2022-09-11T15:26:19;10.77;;;7.30;;
9789;SDS011;4934;50.852;8.098;2022-09-11T15:28:45;11.63;;;7.35;;
9789;SDS011;4934;50.852;8.098;2022-09-11T15:31:14;11.43;;;6.30;;
9789;SDS011;4934;50.852;8.098;2022-09-11T15:33:42;14.63;;;6.90;;
9789;SDS011;4934;50.852;8.098;2022-09-11T15:36:11;12.82;;;7.03;;
9789;SDS011;4934;50.852;8.098;2022-09-11T15:38:38;11.48;;;6.65;;
9789;SDS011;4934;50.852;8.098;2022-09-11T15:41:05;11.38;;;6.57;;
9789;SDS011;4934;50.852;8.098;2022-09-11T15:43:33;15.23;;;6.95;;
9789;SDS011;4934;50.852;8.098;2022-09-11T15:46:08;11.55;;;6.72;;
9789;SDS011;4934;50.852;8.098;2022-09-11T15:48:35;10.90;;;6.93;;
9789;SDS011;4934;50.852;8.098;2022-09-11T15:51:05;14.02;;;7.13;;
9789;SDS011;4934;50.852;8.098;2022-09-11T15:53:32;9.05;;;6.50;;
9789;SDS011;4934;50.852;8.098;2022-09-11T15:56:05;10.43;;;7.00;;
9789;SDS011;4934;50.852;8.098;2022-09-11T15:58:43;14.70;;;7.60;;
9789;SDS011;4934;50.852;8.098;2022-09-11T16:01:20;14.02;;;7.40;;
9789;SDS011;4934;50.852;8.098;2022-09-11T16:03:51;13.63;;;7.47;;
9789;SDS011;4934;50.852;8.098;2022-09-11T16:06:18;13.55;;;7.07;;
9789;SDS011;4934;50.852;8.098;2022-09-11T16:08:45;10.63;;;6.72;;
9789;SDS011;4934;50.852;8.098;2022-09-11T16:11:12;10.75;;;6.82;;
9789;SDS011;4934;50.852;8.098;2022-09-11T16:13:40;11.15;;;6.22;;
9789;SDS011;4934;50.852;8.098;2022-09-11T16:16:06;10.88;;;6.43;;
9789;SDS011;4934;50.852;8.098;2022-09-11T16:18:36;12.40;;;6.75;;
9789;SDS011;4934;50.852;8.098;2022-09-11T16:21:03;9.98;;;6.63;;
9789;SDS011;4934;50.852;8.098;2022-09-11T16:23:30;14.38;;;6.78;;
9789;SDS011;4934;50.852;8.098;2022-09-11T16:25:55;10.75;;;6.15;;
9789;SDS011;4934;50.852;8.098;2022-09-11T16:28:27;11.00;;;6.40;;
9789;SDS011;4934;50.852;8.098;2022-09-11T16:30:52;16.55;;;6.22;;
9789;SDS011;4934;50.852;8.098;2022-09-11T16:33:18;11.48;;;6.07;;
9789;SDS011;4934;50.852;8.098;2022-09-11T16:35:54;11.38;;;6.97;;
9789;SDS011;4934;50.852;8.098;2022-09-11T16:38:29;11.48;;;6.80;;
9789;SDS011;4934;50.852;8.098;2022-09-11T16:41:11;13.73;;;7.47;;
9789;SDS011;4934;50.852;8.098;2022-09-11T16:43:41;12.27;;;6.35;;
9789;SDS011;4934;50.852;8.098;2022-09-11T16:46:21;10.35;;;6.55;;
9789;SDS011;4934;50.852;8.098;2022-09-11T16:48:52;12.88;;;7.10;;
9789;SDS011;4934;50.852;8.098;2022-09-11T16:53:47;14.07;;;6.78;;
9789;SDS011;4934;50.852;8.098;2022-09-11T16:56:15;16.33;;;7.35;;
9789;SDS011;4934;50.852;8.098;2022-09-11T16:58:46;13.50;;;7.43;;
9789;SDS011;4934;50.852;8.098;2022-09-11T17:01:16;14.95;;;7.65;;
9789;SDS011;4934;50.852;8.098;2022-09-11T17:03:44;10.25;;;6.95;;
9789;SDS011;4934;50.852;8.098;2022-09-11T17:06:11;14.38;;;8.00;;
9789;SDS011;4934;50.852;8.098;2022-09-11T17:08:37;17.48;;;7.90;;
9789;SDS011;4934;50.852;8.098;2022-09-11T17:11:03;16.95;;;9.10;;
9789;SDS011;4934;50.852;8.098;2022-09-11T17:13:30;12.73;;;7.57;;
9789;SDS011;4934;50.852;8.098;2022-09-11T17:16:10;17.45;;;8.48;;
9789;SDS011;4934;50.852;8.098;2022-09-11T17:18:46;15.13;;;8.90;;
9789;SDS011;4934;50.852;8.098;2022-09-11T17:21:13;18.70;;;8.88;;
9789;SDS011;4934;50.852;8.098;2022-09-11T17:23:39;14.75;;;7.82;;
9789;SDS011;4934;50.852;8.098;2022-09-11T17:26:08;14.20;;;8.00;;
9789;SDS011;4934;50.852;8.098;2022-09-11T17:28:38;18.08;;;7.50;;
9789;SDS011;4934;50.852;8.098;2022-09-11T17:31:07;10.73;;;6.85;;
9789;SDS011;4934;50.852;8.098;2022-09-11T17:33:37;12.45;;;6.88;;
9789;SDS011;4934;50.852;8.098;2022-09-11T17:36:04;15.05;;;8.18;;
9789;SDS011;4934;50.852;8.098;2022-09-11T17:38:32;13.52;;;7.15;;
9789;SDS011;4934;50.852;8.098;2022-09-11T17:41:00;12.65;;;7.75;;